sensor_id;sensor_type;location;lat;lon;timestamp;P1;durP1;ratioP1;P2;durP2;ratioP2
49217;SDS011;35045;51.194;7.268;2023-04-24T00:01:18;2.20;;;0.90;;
49217;SDS011;35045;51.194;7.268;2023-04-24T00:03:45;3.25;;;1.05;;
49217;SDS011;35045;51.194;7.268;2023-04-24T00:06:11;2.67;;;1.08;;
49217;SDS011;35045;51.194;7.268;2023-04-24T00:08:37;1.95;;;0.80;;
49217;SDS011;35045;51.194;7.268;2023-04-24T00:11:03;3.00;;;1.00;;
49217;SDS011;35045;51.194;7.268;2023-04-24T00:13:29;2.72;;;1.05;;
49217;SDS011;35045;51.194;7.268;2023-04-24T00:15:56;2.50;;;1.20;;
49217;SDS011;35045;51.194;7.268;2023-04-24T00:18:22;3.15;;;0.98;;
49217;SDS011;35045;51.194;7.268;2023-04-24T00:20:48;2.63;;;0.85;;
49217;SDS011;35045;51.194;7.268;2023-04-24T00:23:14;2.22;;;0.93;;
49217;SDS011;35045;51.194;7.268;2023-04-24T00:25:40;2.47;;;1.00;;
49217;SDS011;35045;51.194;7.268;2023-04-24T00:28:07;2.65;;;1.02;;
49217;SDS011;35045;51.194;7.268;2023-04-24T00:30:33;3.22;;;1.20;;
49217;SDS011;35045;51.194;7.268;2023-04-24T00:32:59;3.00;;;1.05;;
49217;SDS011;35045;51.194;7.268;2023-04-24T00:35:25;3.65;;;1.30;;
49217;SDS011;35045;51.194;7.268;2023-04-24T00:37:51;2.72;;;1.00;;
49217;SDS011;35045;51.194;7.268;2023-04-24T00:40:17;3.75;;;1.13;;
49217;SDS011;35045;51.194;7.268;2023-04-24T00:42:44;3.63;;;1.33;;
49217;SDS011;35045;51.194;7.268;2023-04-24T00:45:10;2.72;;;1.00;;
49217;SDS011;35045;51.194;7.268;2023-04-24T00:47:38;3.63;;;1.30;;
49217;SDS011;35045;51.194;7.268;2023-04-24T00:50:05;2.42;;;0.90;;
49217;SDS011;35045;51.194;7.268;2023-04-24T00:52:32;2.65;;;0.80;;
49217;SDS011;35045;51.194;7.268;2023-04-24T00:54:58;2.65;;;1.00;;
49217;SDS011;35045;51.194;7.268;2023-04-24T00:57:25;2.88;;;0.90;;
49217;SDS011;35045;51.194;7.268;2023-04-24T00:59:52;2.72;;;1.20;;
49217;SDS011;35045;51.194;7.268;2023-04-24T01:02:19;2.03;;;0.90;;
49217;SDS011;35045;51.194;7.268;2023-04-24T01:04:46;2.33;;;1.00;;
49217;SDS011;35045;51.194;7.268;2023-04-24T01:07:12;1.98;;;0.90;;
49217;SDS011;35045;51.194;7.268;2023-04-24T01:09:39;2.60;;;1.10;;
49217;SDS011;35045;51.194;7.268;2023-04-24T01:12:09;3.35;;;1.13;;
49217;SDS011;35045;51.194;7.268;2023-04-24T01:14:36;4.88;;;1.38;;
49217;SDS011;35045;51.194;7.268;2023-04-24T01:17:02;3.85;;;1.10;;
49217;SDS011;35045;51.194;7.268;2023-04-24T01:19:28;4.50;;;1.45;;
49217;SDS011;35045;51.194;7.268;2023-04-24T01:21:56;4.32;;;1.27;;
49217;SDS011;35045;51.194;7.268;2023-04-24T01:24:24;3.33;;;1.10;;
49217;SDS011;35045;51.194;7.268;2023-04-24T01:26:50;4.20;;;1.50;;
49217;SDS011;35045;51.194;7.268;2023-04-24T01:29:17;4.50;;;1.40;;
49217;SDS011;35045;51.194;7.268;2023-04-24T01:31:43;3.10;;;1.20;;
49217;SDS011;35045;51.194;7.268;2023-04-24T01:34:09;3.67;;;1.33;;
49217;SDS011;35045;51.194;7.268;2023-04-24T01:36:36;3.15;;;1.17;;
49217;SDS011;35045;51.194;7.268;2023-04-24T01:39:04;3.10;;;1.40;;
49217;SDS011;35045;51.194;7.268;2023-04-24T01:41:30;4.80;;;1.58;;
49217;SDS011;35045;51.194;7.268;2023-04-24T01:43:57;3.58;;;1.45;;
49217;SDS011;35045;51.194;7.268;2023-04-24T01:46:24;5.03;;;1.58;;
49217;SDS011;35045;51.194;7.268;2023-04-24T01:48:51;23.20;;;1.80;;
49217;SDS011;35045;51.194;7.268;2023-04-24T01:51:17;4.07;;;1.77;;
49217;SDS011;35045;51.194;7.268;2023-04-24T01:53:44;4.10;;;1.65;;
49217;SDS011;35045;51.194;7.268;2023-04-24T01:56:10;4.75;;;1.83;;
49217;SDS011;35045;51.194;7.268;2023-04-24T01:58:37;4.07;;;1.80;;
49217;SDS011;35045;51.194;7.268;2023-04-24T02:01:05;4.28;;;1.90;;
49217;SDS011;35045;51.194;7.268;2023-04-24T02:03:32;6.93;;;1.98;;
49217;SDS011;35045;51.194;7.268;2023-04-24T02:05:58;5.40;;;2.58;;
49217;SDS011;35045;51.194;7.268;2023-04-24T02:08:24;9.30;;;3.22;;
49217;SDS011;35045;51.194;7.268;2023-04-24T02:10:51;5.95;;;3.38;;
49217;SDS011;35045;51.194;7.268;2023-04-24T02:13:17;6.38;;;2.85;;
49217;SDS011;35045;51.194;7.268;2023-04-24T02:15:43;7.00;;;3.70;;
49217;SDS011;35045;51.194;7.268;2023-04-24T02:18:09;6.82;;;3.70;;
49217;SDS011;35045;51.194;7.268;2023-04-24T02:20:36;7.55;;;3.75;;
49217;SDS011;35045;51.194;7.268;2023-04-24T02:23:03;8.23;;;4.72;;
49217;SDS011;35045;51.194;7.268;2023-04-24T02:25:29;7.25;;;4.53;;
49217;SDS011;35045;51.194;7.268;2023-04-24T02:27:55;8.52;;;5.30;;
49217;SDS011;35045;51.194;7.268;2023-04-24T02:30:21;10.23;;;4.43;;
49217;SDS011;35045;51.194;7.268;2023-04-24T02:32:47;8.60;;;4.78;;
49217;SDS011;35045;51.194;7.268;2023-04-24T02:35:13;9.25;;;5.32;;
49217;SDS011;35045;51.194;7.268;2023-04-24T02:37:40;7.20;;;4.65;;
49217;SDS011;35045;51.194;7.268;2023-04-24T02:40:06;9.95;;;5.00;;
49217;SDS011;35045;51.194;7.268;2023-04-24T02:42:33;8.35;;;4.45;;
49217;SDS011;35045;51.194;7.268;2023-04-24T02:45:00;9.07;;;5.43;;
49217;SDS011;35045;51.194;7.268;2023-04-24T02:47:26;7.05;;;4.15;;
49217;SDS011;35045;51.194;7.268;2023-04-24T02:49:52;8.90;;;4.78;;
49217;SDS011;35045;51.194;7.268;2023-04-24T02:52:18;8.50;;;5.28;;
49217;SDS011;35045;51.194;7.268;2023-04-24T02:54:44;9.32;;;5.90;;
49217;SDS011;35045;51.194;7.268;2023-04-24T02:57:11;12.00;;;7.82;;
49217;SDS011;35045;51.194;7.268;2023-04-24T02:59:37;13.77;;;8.30;;
49217;SDS011;35045;51.194;7.268;2023-04-24T03:02:03;11.85;;;8.23;;
49217;SDS011;35045;51.194;7.268;2023-04-24T03:04:29;10.88;;;7.78;;
49217;SDS011;35045;51.194;7.268;2023-04-24T03:06:55;12.55;;;8.10;;
49217;SDS011;35045;51.194;7.268;2023-04-24T03:09:21;10.18;;;7.43;;
49217;SDS011;35045;51.194;7.268;2023-04-24T03:11:48;12.27;;;7.55;;
49217;SDS011;35045;51.194;7.268;2023-04-24T03:14:15;13.90;;;7.28;;
49217;SDS011;35045;51.194;7.268;2023-04-24T03:16:41;11.60;;;7.00;;
49217;SDS011;35045;51.194;7.268;2023-04-24T03:19:07;10.30;;;6.72;;
49217;SDS011;35045;51.194;7.268;2023-04-24T03:21:34;14.10;;;7.50;;
49217;SDS011;35045;51.194;7.268;2023-04-24T03:24:01;11.43;;;7.05;;
49217;SDS011;35045;51.194;7.268;2023-04-24T03:26:27;10.70;;;6.57;;
49217;SDS011;35045;51.194;7.268;2023-04-24T03:28:54;10.23;;;7.55;;
49217;SDS011;35045;51.194;7.268;2023-04-24T03:31:20;10.07;;;6.82;;
49217;SDS011;35045;51.194;7.268;2023-04-24T03:33:46;12.18;;;7.88;;
49217;SDS011;35045;51.194;7.268;2023-04-24T03:36:12;10.73;;;7.32;;
49217;SDS011;35045;51.194;7.268;2023-04-24T03:38:39;11.05;;;7.28;;
49217;SDS011;35045;51.194;7.268;2023-04-24T03:41:05;10.50;;;6.93;;
49217;SDS011;35045;51.194;7.268;2023-04-24T03:43:31;10.52;;;6.72;;
49217;SDS011;35045;51.194;7.268;2023-04-24T03:45:58;11.93;;;7.03;;
49217;SDS011;35045;51.194;7.268;2023-04-24T03:48:25;12.02;;;7.55;;
49217;SDS011;35045;51.194;7.268;2023-04-24T03:50:51;12.27;;;7.68;;
49217;SDS011;35045;51.194;7.268;2023-04-24T03:53:17;11.25;;;7.50;;
49217;SDS011;35045;51.194;7.268;2023-04-24T03:55:43;12.30;;;7.50;;
49217;SDS011;35045;51.194;7.268;2023-04-24T03:58:10;11.38;;;7.75;;
49217;SDS011;35045;51.194;7.268;2023-04-24T04:00:36;11.48;;;8.05;;
49217;SDS011;35045;51.194;7.268;2023-04-24T04:03:03;12.57;;;7.65;;
49217;SDS011;35045;51.194;7.268;2023-04-24T04:05:29;15.48;;;7.95;;
49217;SDS011;35045;51.194;7.268;2023-04-24T04:07:55;12.68;;;7.10;;
49217;SDS011;35045;51.194;7.268;2023-04-24T04:10:21;12.60;;;8.38;;
49217;SDS011;35045;51.194;7.268;2023-04-24T04:12:48;13.23;;;8.30;;
49217;SDS011;35045;51.194;7.268;2023-04-24T04:15:14;11.55;;;8.10;;
49217;SDS011;35045;51.194;7.268;2023-04-24T04:17:40;12.88;;;8.27;;
49217;SDS011;35045;51.194;7.268;2023-04-24T04:20:07;11.95;;;8.73;;
49217;SDS011;35045;51.194;7.268;2023-04-24T04:22:35;11.15;;;8.68;;
49217;SDS011;35045;51.194;7.268;2023-04-24T04:25:03;12.40;;;8.20;;
49217;SDS011;35045;51.194;7.268;2023-04-24T04:27:30;11.93;;;8.38;;
49217;SDS011;35045;51.194;7.268;2023-04-24T04:29:58;11.98;;;8.25;;
49217;SDS011;35045;51.194;7.268;2023-04-24T04:32:28;11.32;;;8.18;;
49217;SDS011;35045;51.194;7.268;2023-04-24T04:34:54;12.98;;;8.02;;
49217;SDS011;35045;51.194;7.268;2023-04-24T04:37:20;12.23;;;8.13;;
49217;SDS011;35045;51.194;7.268;2023-04-24T04:39:47;12.82;;;8.63;;
49217;SDS011;35045;51.194;7.268;2023-04-24T04:42:13;11.48;;;8.50;;
49217;SDS011;35045;51.194;7.268;2023-04-24T04:44:39;14.60;;;8.77;;
49217;SDS011;35045;51.194;7.268;2023-04-24T04:47:05;11.18;;;8.05;;
49217;SDS011;35045;51.194;7.268;2023-04-24T04:49:32;12.48;;;8.10;;
49217;SDS011;35045;51.194;7.268;2023-04-24T04:51:58;13.15;;;8.25;;
49217;SDS011;35045;51.194;7.268;2023-04-24T04:54:24;12.85;;;8.40;;
49217;SDS011;35045;51.194;7.268;2023-04-24T04:56:50;11.02;;;8.10;;
49217;SDS011;35045;51.194;7.268;2023-04-24T04:59:16;13.00;;;8.68;;
49217;SDS011;35045;51.194;7.268;2023-04-24T05:01:42;12.70;;;8.18;;
49217;SDS011;35045;51.194;7.268;2023-04-24T05:04:08;15.07;;;8.93;;
49217;SDS011;35045;51.194;7.268;2023-04-24T05:06:35;12.13;;;7.68;;
49217;SDS011;35045;51.194;7.268;2023-04-24T05:09:01;12.85;;;7.95;;
49217;SDS011;35045;51.194;7.268;2023-04-24T05:11:27;10.65;;;7.07;;
49217;SDS011;35045;51.194;7.268;2023-04-24T05:13:53;11.20;;;8.13;;
49217;SDS011;35045;51.194;7.268;2023-04-24T05:16:19;12.68;;;8.32;;
49217;SDS011;35045;51.194;7.268;2023-04-24T05:18:45;10.77;;;7.78;;
49217;SDS011;35045;51.194;7.268;2023-04-24T05:21:11;13.48;;;8.40;;
49217;SDS011;35045;51.194;7.268;2023-04-24T05:23:38;13.77;;;8.02;;
49217;SDS011;35045;51.194;7.268;2023-04-24T05:26:04;13.05;;;8.27;;
49217;SDS011;35045;51.194;7.268;2023-04-24T05:28:31;12.93;;;7.63;;
49217;SDS011;35045;51.194;7.268;2023-04-24T05:30:58;12.88;;;7.35;;
49217;SDS011;35045;51.194;7.268;2023-04-24T05:33:25;10.38;;;6.75;;
49217;SDS011;35045;51.194;7.268;2023-04-24T05:35:51;9.80;;;8.07;;
49217;SDS011;35045;51.194;7.268;2023-04-24T05:38:17;9.52;;;6.95;;
49217;SDS011;35045;51.194;7.268;2023-04-24T05:40:45;11.63;;;7.60;;
49217;SDS011;35045;51.194;7.268;2023-04-24T05:43:11;9.98;;;6.78;;
49217;SDS011;35045;51.194;7.268;2023-04-24T05:45:38;10.98;;;7.65;;
49217;SDS011;35045;51.194;7.268;2023-04-24T05:48:04;11.18;;;7.28;;
49217;SDS011;35045;51.194;7.268;2023-04-24T05:50:31;9.98;;;6.55;;
49217;SDS011;35045;51.194;7.268;2023-04-24T05:52:58;11.30;;;7.30;;
49217;SDS011;35045;51.194;7.268;2023-04-24T05:55:24;11.55;;;6.93;;
49217;SDS011;35045;51.194;7.268;2023-04-24T05:57:51;9.80;;;6.40;;
49217;SDS011;35045;51.194;7.268;2023-04-24T06:00:17;10.43;;;7.03;;
49217;SDS011;35045;51.194;7.268;2023-04-24T06:02:45;10.73;;;7.22;;
49217;SDS011;35045;51.194;7.268;2023-04-24T06:05:12;12.93;;;7.50;;
49217;SDS011;35045;51.194;7.268;2023-04-24T06:07:38;13.65;;;8.10;;
49217;SDS011;35045;51.194;7.268;2023-04-24T06:10:06;11.02;;;7.63;;
49217;SDS011;35045;51.194;7.268;2023-04-24T06:12:32;11.77;;;8.50;;
49217;SDS011;35045;51.194;7.268;2023-04-24T06:14:58;12.63;;;8.38;;
49217;SDS011;35045;51.194;7.268;2023-04-24T06:17:25;11.88;;;8.30;;
49217;SDS011;35045;51.194;7.268;2023-04-24T06:19:51;11.23;;;7.88;;
49217;SDS011;35045;51.194;7.268;2023-04-24T06:22:17;12.80;;;7.95;;
49217;SDS011;35045;51.194;7.268;2023-04-24T06:24:44;11.63;;;8.93;;
49217;SDS011;35045;51.194;7.268;2023-04-24T06:27:10;10.88;;;8.57;;
49217;SDS011;35045;51.194;7.268;2023-04-24T06:29:36;13.52;;;8.48;;
49217;SDS011;35045;51.194;7.268;2023-04-24T06:32:02;12.65;;;9.23;;
49217;SDS011;35045;51.194;7.268;2023-04-24T06:34:28;13.57;;;8.75;;
49217;SDS011;35045;51.194;7.268;2023-04-24T06:36:56;11.73;;;8.55;;
49217;SDS011;35045;51.194;7.268;2023-04-24T06:39:22;13.35;;;8.27;;
49217;SDS011;35045;51.194;7.268;2023-04-24T06:41:48;11.73;;;7.90;;
49217;SDS011;35045;51.194;7.268;2023-04-24T06:44:14;11.20;;;8.77;;
49217;SDS011;35045;51.194;7.268;2023-04-24T06:46:41;13.52;;;9.35;;
49217;SDS011;35045;51.194;7.268;2023-04-24T06:49:07;12.55;;;8.90;;
49217;SDS011;35045;51.194;7.268;2023-04-24T06:51:33;12.15;;;8.85;;
49217;SDS011;35045;51.194;7.268;2023-04-24T06:54:00;17.50;;;9.77;;
49217;SDS011;35045;51.194;7.268;2023-04-24T06:56:26;13.65;;;8.80;;
49217;SDS011;35045;51.194;7.268;2023-04-24T06:58:54;14.75;;;9.77;;
49217;SDS011;35045;51.194;7.268;2023-04-24T07:01:20;14.32;;;9.27;;
49217;SDS011;35045;51.194;7.268;2023-04-24T07:03:46;11.40;;;8.80;;
49217;SDS011;35045;51.194;7.268;2023-04-24T07:06:12;12.32;;;8.60;;
49217;SDS011;35045;51.194;7.268;2023-04-24T07:08:39;10.68;;;7.72;;
49217;SDS011;35045;51.194;7.268;2023-04-24T07:11:07;10.75;;;7.45;;
49217;SDS011;35045;51.194;7.268;2023-04-24T07:13:33;12.40;;;7.15;;
49217;SDS011;35045;51.194;7.268;2023-04-24T07:16:00;9.23;;;6.95;;
49217;SDS011;35045;51.194;7.268;2023-04-24T07:18:27;10.25;;;6.30;;
49217;SDS011;35045;51.194;7.268;2023-04-24T07:20:53;10.05;;;6.10;;
49217;SDS011;35045;51.194;7.268;2023-04-24T07:23:19;11.90;;;6.35;;
49217;SDS011;35045;51.194;7.268;2023-04-24T07:25:45;9.75;;;6.88;;
49217;SDS011;35045;51.194;7.268;2023-04-24T07:28:12;10.40;;;7.10;;
49217;SDS011;35045;51.194;7.268;2023-04-24T07:30:38;7.70;;;5.15;;
49217;SDS011;35045;51.194;7.268;2023-04-24T07:33:04;8.38;;;4.38;;
49217;SDS011;35045;51.194;7.268;2023-04-24T07:35:32;7.53;;;3.17;;
49217;SDS011;35045;51.194;7.268;2023-04-24T07:37:58;6.05;;;3.00;;
49217;SDS011;35045;51.194;7.268;2023-04-24T07:40:25;4.30;;;1.92;;
49217;SDS011;35045;51.194;7.268;2023-04-24T07:42:52;4.78;;;2.20;;
49217;SDS011;35045;51.194;7.268;2023-04-24T07:45:18;4.45;;;2.40;;
49217;SDS011;35045;51.194;7.268;2023-04-24T07:47:45;6.30;;;2.90;;
49217;SDS011;35045;51.194;7.268;2023-04-24T07:50:12;6.10;;;2.92;;
49217;SDS011;35045;51.194;7.268;2023-04-24T07:52:38;5.20;;;2.60;;
49217;SDS011;35045;51.194;7.268;2023-04-24T07:55:05;11.07;;;2.65;;
49217;SDS011;35045;51.194;7.268;2023-04-24T07:57:31;4.65;;;2.20;;
49217;SDS011;35045;51.194;7.268;2023-04-24T07:59:59;4.65;;;2.20;;
49217;SDS011;35045;51.194;7.268;2023-04-24T08:02:26;4.05;;;1.73;;
49217;SDS011;35045;51.194;7.268;2023-04-24T08:04:52;3.80;;;1.80;;
49217;SDS011;35045;51.194;7.268;2023-04-24T08:07:19;4.10;;;1.77;;
49217;SDS011;35045;51.194;7.268;2023-04-24T08:09:46;3.90;;;1.75;;
49217;SDS011;35045;51.194;7.268;2023-04-24T08:12:12;5.13;;;2.20;;
49217;SDS011;35045;51.194;7.268;2023-04-24T08:14:38;4.78;;;2.22;;
49217;SDS011;35045;51.194;7.268;2023-04-24T08:17:04;4.30;;;1.80;;
49217;SDS011;35045;51.194;7.268;2023-04-24T08:19:30;3.60;;;1.50;;
49217;SDS011;35045;51.194;7.268;2023-04-24T08:21:57;2.60;;;1.15;;
49217;SDS011;35045;51.194;7.268;2023-04-24T08:24:23;3.08;;;1.10;;
49217;SDS011;35045;51.194;7.268;2023-04-24T08:26:49;2.10;;;0.90;;
49217;SDS011;35045;51.194;7.268;2023-04-24T08:29:17;2.22;;;0.60;;
49217;SDS011;35045;51.194;7.268;2023-04-24T08:31:43;1.70;;;0.50;;
49217;SDS011;35045;51.194;7.268;2023-04-24T08:34:09;1.73;;;0.98;;
49217;SDS011;35045;51.194;7.268;2023-04-24T08:36:36;2.55;;;0.80;;
49217;SDS011;35045;51.194;7.268;2023-04-24T08:39:08;2.33;;;0.80;;
49217;SDS011;35045;51.194;7.268;2023-04-24T08:41:34;3.38;;;1.00;;
49217;SDS011;35045;51.194;7.268;2023-04-24T08:44:02;2.45;;;1.08;;
49217;SDS011;35045;51.194;7.268;2023-04-24T08:46:29;3.95;;;1.30;;
49217;SDS011;35045;51.194;7.268;2023-04-24T08:48:56;3.88;;;1.40;;
49217;SDS011;35045;51.194;7.268;2023-04-24T08:51:23;4.30;;;1.58;;
49217;SDS011;35045;51.194;7.268;2023-04-24T08:53:53;3.97;;;1.77;;
49217;SDS011;35045;51.194;7.268;2023-04-24T08:56:21;4.93;;;2.22;;
49217;SDS011;35045;51.194;7.268;2023-04-24T08:58:53;4.85;;;2.42;;
49217;SDS011;35045;51.194;7.268;2023-04-24T09:01:19;7.30;;;2.60;;
49217;SDS011;35045;51.194;7.268;2023-04-24T09:03:48;5.50;;;2.80;;
49217;SDS011;35045;51.194;7.268;2023-04-24T09:06:14;6.75;;;2.90;;
49217;SDS011;35045;51.194;7.268;2023-04-24T09:08:43;5.95;;;3.47;;
49217;SDS011;35045;51.194;7.268;2023-04-24T09:11:10;6.40;;;3.17;;
49217;SDS011;35045;51.194;7.268;2023-04-24T09:13:37;5.45;;;3.10;;
49217;SDS011;35045;51.194;7.268;2023-04-24T09:16:03;5.35;;;2.70;;
49217;SDS011;35045;51.194;7.268;2023-04-24T09:18:30;4.63;;;2.15;;
49217;SDS011;35045;51.194;7.268;2023-04-24T09:20:57;4.50;;;2.20;;
49217;SDS011;35045;51.194;7.268;2023-04-24T09:23:25;5.28;;;2.47;;
49217;SDS011;35045;51.194;7.268;2023-04-24T09:25:56;4.80;;;2.60;;
49217;SDS011;35045;51.194;7.268;2023-04-24T09:28:26;6.53;;;2.58;;
49217;SDS011;35045;51.194;7.268;2023-04-24T09:31:13;3.97;;;1.98;;
49217;SDS011;35045;51.194;7.268;2023-04-24T09:33:56;4.78;;;2.33;;
49217;SDS011;35045;51.194;7.268;2023-04-24T09:36:33;5.47;;;2.70;;
49217;SDS011;35045;51.194;7.268;2023-04-24T09:39:07;5.22;;;2.47;;
49217;SDS011;35045;51.194;7.268;2023-04-24T09:41:43;4.88;;;2.30;;
49217;SDS011;35045;51.194;7.268;2023-04-24T09:44:22;4.82;;;1.73;;
49217;SDS011;35045;51.194;7.268;2023-04-24T09:46:57;5.38;;;2.00;;
49217;SDS011;35045;51.194;7.268;2023-04-24T09:49:28;4.47;;;1.98;;
49217;SDS011;35045;51.194;7.268;2023-04-24T09:52:08;6.78;;;1.98;;
49217;SDS011;35045;51.194;7.268;2023-04-24T09:54:36;5.25;;;1.77;;
49217;SDS011;35045;51.194;7.268;2023-04-24T09:57:02;4.57;;;1.83;;
49217;SDS011;35045;51.194;7.268;2023-04-24T09:59:29;5.85;;;2.10;;
49217;SDS011;35045;51.194;7.268;2023-04-24T10:01:55;5.80;;;2.20;;
49217;SDS011;35045;51.194;7.268;2023-04-24T10:04:22;4.80;;;2.40;;
49217;SDS011;35045;51.194;7.268;2023-04-24T10:06:51;4.07;;;1.90;;
49217;SDS011;35045;51.194;7.268;2023-04-24T10:09:18;4.22;;;1.70;;
49217;SDS011;35045;51.194;7.268;2023-04-24T10:11:47;3.88;;;1.88;;
49217;SDS011;35045;51.194;7.268;2023-04-24T10:14:18;5.82;;;2.28;;
49217;SDS011;35045;51.194;7.268;2023-04-24T10:16:46;5.40;;;2.50;;
49217;SDS011;35045;51.194;7.268;2023-04-24T10:19:13;5.97;;;2.30;;
49217;SDS011;35045;51.194;7.268;2023-04-24T10:21:41;7.00;;;2.45;;
49217;SDS011;35045;51.194;7.268;2023-04-24T10:24:15;7.78;;;3.25;;
49217;SDS011;35045;51.194;7.268;2023-04-24T10:26:43;7.45;;;3.42;;
49217;SDS011;35045;51.194;7.268;2023-04-24T10:29:14;6.00;;;3.40;;
49217;SDS011;35045;51.194;7.268;2023-04-24T10:31:42;9.13;;;4.43;;
49217;SDS011;35045;51.194;7.268;2023-04-24T10:34:11;8.90;;;4.22;;
49217;SDS011;35045;51.194;7.268;2023-04-24T10:36:55;9.50;;;4.30;;
49217;SDS011;35045;51.194;7.268;2023-04-24T10:39:22;8.63;;;4.68;;
49217;SDS011;35045;51.194;7.268;2023-04-24T10:41:49;7.47;;;4.20;;
49217;SDS011;35045;51.194;7.268;2023-04-24T10:44:16;7.57;;;4.50;;
49217;SDS011;35045;51.194;7.268;2023-04-24T10:46:43;6.97;;;3.65;;
49217;SDS011;35045;51.194;7.268;2023-04-24T10:49:10;8.13;;;3.38;;
49217;SDS011;35045;51.194;7.268;2023-04-24T10:52:10;7.05;;;3.58;;
49217;SDS011;35045;51.194;7.268;2023-04-24T10:54:35;7.60;;;4.28;;
49217;SDS011;35045;51.194;7.268;2023-04-24T10:59:45;10.32;;;5.07;;
49217;SDS011;35045;51.194;7.268;2023-04-24T11:02:16;8.60;;;5.07;;
49217;SDS011;35045;51.194;7.268;2023-04-24T11:04:43;8.13;;;3.80;;
49217;SDS011;35045;51.194;7.268;2023-04-24T11:07:11;8.00;;;3.58;;
49217;SDS011;35045;51.194;7.268;2023-04-24T11:09:37;7.80;;;3.45;;
49217;SDS011;35045;51.194;7.268;2023-04-24T11:12:07;9.23;;;4.45;;
49217;SDS011;35045;51.194;7.268;2023-04-24T11:17:36;8.25;;;3.80;;
49217;SDS011;35045;51.194;7.268;2023-04-24T11:20:06;11.18;;;4.45;;
49217;SDS011;35045;51.194;7.268;2023-04-24T11:22:40;10.40;;;4.00;;
49217;SDS011;35045;51.194;7.268;2023-04-24T11:25:06;9.05;;;4.07;;
49217;SDS011;35045;51.194;7.268;2023-04-24T11:27:40;8.80;;;4.25;;
49217;SDS011;35045;51.194;7.268;2023-04-24T11:30:11;6.88;;;3.90;;
49217;SDS011;35045;51.194;7.268;2023-04-24T11:32:42;8.75;;;4.30;;
49217;SDS011;35045;51.194;7.268;2023-04-24T11:35:13;10.25;;;4.80;;
49217;SDS011;35045;51.194;7.268;2023-04-24T11:37:41;11.68;;;5.82;;
49217;SDS011;35045;51.194;7.268;2023-04-24T11:40:13;12.27;;;5.88;;
49217;SDS011;35045;51.194;7.268;2023-04-24T11:42:42;15.70;;;6.35;;
49217;SDS011;35045;51.194;7.268;2023-04-24T11:45:10;10.82;;;5.68;;
49217;SDS011;35045;51.194;7.268;2023-04-24T11:47:38;15.35;;;6.10;;
49217;SDS011;35045;51.194;7.268;2023-04-24T11:50:06;9.88;;;6.05;;
49217;SDS011;35045;51.194;7.268;2023-04-24T11:52:37;10.50;;;5.93;;
49217;SDS011;35045;51.194;7.268;2023-04-24T11:55:22;14.07;;;6.45;;
49217;SDS011;35045;51.194;7.268;2023-04-24T11:57:55;14.73;;;6.68;;
49217;SDS011;35045;51.194;7.268;2023-04-24T12:00:23;12.57;;;5.97;;
49217;SDS011;35045;51.194;7.268;2023-04-24T12:03:02;13.13;;;6.97;;
49217;SDS011;35045;51.194;7.268;2023-04-24T12:05:33;11.18;;;6.00;;
49217;SDS011;35045;51.194;7.268;2023-04-24T12:08:00;13.10;;;6.18;;
49217;SDS011;35045;51.194;7.268;2023-04-24T12:10:27;15.60;;;6.68;;
49217;SDS011;35045;51.194;7.268;2023-04-24T12:12:55;13.88;;;6.75;;
49217;SDS011;35045;51.194;7.268;2023-04-24T12:15:22;11.57;;;6.60;;
49217;SDS011;35045;51.194;7.268;2023-04-24T12:17:52;14.85;;;8.32;;
49217;SDS011;35045;51.194;7.268;2023-04-24T12:20:26;11.52;;;7.00;;
49217;SDS011;35045;51.194;7.268;2023-04-24T12:22:55;15.02;;;6.82;;
49217;SDS011;35045;51.194;7.268;2023-04-24T12:25:23;12.75;;;6.80;;
49217;SDS011;35045;51.194;7.268;2023-04-24T12:28:08;13.77;;;6.45;;
49217;SDS011;35045;51.194;7.268;2023-04-24T12:30:40;13.27;;;6.30;;
49217;SDS011;35045;51.194;7.268;2023-04-24T12:33:10;12.65;;;5.90;;
49217;SDS011;35045;51.194;7.268;2023-04-24T12:35:36;13.68;;;7.45;;
49217;SDS011;35045;51.194;7.268;2023-04-24T12:38:06;10.27;;;5.55;;
49217;SDS011;35045;51.194;7.268;2023-04-24T12:40:36;11.57;;;5.10;;
49217;SDS011;35045;51.194;7.268;2023-04-24T12:43:02;9.63;;;5.53;;
49217;SDS011;35045;51.194;7.268;2023-04-24T12:45:42;12.27;;;5.18;;
49217;SDS011;35045;51.194;7.268;2023-04-24T12:48:08;11.82;;;5.40;;
49217;SDS011;35045;51.194;7.268;2023-04-24T12:50:34;14.32;;;5.32;;
49217;SDS011;35045;51.194;7.268;2023-04-24T12:53:01;10.98;;;5.38;;
49217;SDS011;35045;51.194;7.268;2023-04-24T12:55:27;11.07;;;5.10;;
49217;SDS011;35045;51.194;7.268;2023-04-24T12:57:53;15.77;;;5.32;;
49217;SDS011;35045;51.194;7.268;2023-04-24T13:00:20;11.02;;;4.72;;
49217;SDS011;35045;51.194;7.268;2023-04-24T13:02:47;12.57;;;5.22;;
49217;SDS011;35045;51.194;7.268;2023-04-24T13:05:13;10.60;;;4.30;;
49217;SDS011;35045;51.194;7.268;2023-04-24T13:07:39;9.25;;;4.75;;
49217;SDS011;35045;51.194;7.268;2023-04-24T13:10:06;10.23;;;4.22;;
49217;SDS011;35045;51.194;7.268;2023-04-24T13:12:33;11.07;;;4.35;;
49217;SDS011;35045;51.194;7.268;2023-04-24T13:15:00;12.02;;;4.20;;
49217;SDS011;35045;51.194;7.268;2023-04-24T13:17:26;11.98;;;4.28;;
49217;SDS011;35045;51.194;7.268;2023-04-24T13:19:54;14.15;;;4.97;;
49217;SDS011;35045;51.194;7.268;2023-04-24T13:22:20;13.35;;;3.55;;
49217;SDS011;35045;51.194;7.268;2023-04-24T13:24:47;7.97;;;3.40;;
49217;SDS011;35045;51.194;7.268;2023-04-24T13:27:18;11.30;;;3.53;;
49217;SDS011;35045;51.194;7.268;2023-04-24T13:29:44;8.90;;;3.60;;
49217;SDS011;35045;51.194;7.268;2023-04-24T13:32:11;7.43;;;2.72;;
49217;SDS011;35045;51.194;7.268;2023-04-24T13:34:37;9.25;;;3.13;;
49217;SDS011;35045;51.194;7.268;2023-04-24T13:37:03;6.80;;;2.20;;
49217;SDS011;35045;51.194;7.268;2023-04-24T13:39:30;7.97;;;2.65;;
49217;SDS011;35045;51.194;7.268;2023-04-24T13:41:57;6.25;;;2.38;;
49217;SDS011;35045;51.194;7.268;2023-04-24T13:44:23;9.27;;;2.58;;
49217;SDS011;35045;51.194;7.268;2023-04-24T13:46:50;6.97;;;2.50;;
49217;SDS011;35045;51.194;7.268;2023-04-24T13:49:20;4.30;;;1.85;;
49217;SDS011;35045;51.194;7.268;2023-04-24T13:51:46;7.93;;;1.98;;
49217;SDS011;35045;51.194;7.268;2023-04-24T13:54:13;5.13;;;1.92;;
49217;SDS011;35045;51.194;7.268;2023-04-24T13:56:39;5.05;;;1.63;;
49217;SDS011;35045;51.194;7.268;2023-04-24T13:59:06;7.18;;;2.15;;
49217;SDS011;35045;51.194;7.268;2023-04-24T14:01:32;6.00;;;1.98;;
49217;SDS011;35045;51.194;7.268;2023-04-24T14:03:59;7.50;;;2.30;;
49217;SDS011;35045;51.194;7.268;2023-04-24T14:06:25;7.18;;;2.10;;
49217;SDS011;35045;51.194;7.268;2023-04-24T14:08:51;8.25;;;2.17;;
49217;SDS011;35045;51.194;7.268;2023-04-24T14:11:18;6.88;;;2.47;;
49217;SDS011;35045;51.194;7.268;2023-04-24T14:13:45;6.05;;;2.40;;
49217;SDS011;35045;51.194;7.268;2023-04-24T14:16:11;7.32;;;2.50;;
49217;SDS011;35045;51.194;7.268;2023-04-24T14:18:38;7.15;;;2.35;;
49217;SDS011;35045;51.194;7.268;2023-04-24T14:21:04;6.90;;;2.58;;
49217;SDS011;35045;51.194;7.268;2023-04-24T14:23:31;5.90;;;2.33;;
49217;SDS011;35045;51.194;7.268;2023-04-24T14:25:57;8.10;;;2.50;;
49217;SDS011;35045;51.194;7.268;2023-04-24T14:28:24;7.88;;;2.63;;
49217;SDS011;35045;51.194;7.268;2023-04-24T14:30:52;7.63;;;2.67;;
49217;SDS011;35045;51.194;7.268;2023-04-24T14:33:18;6.70;;;1.83;;
49217;SDS011;35045;51.194;7.268;2023-04-24T14:35:45;6.28;;;2.40;;
49217;SDS011;35045;51.194;7.268;2023-04-24T14:38:11;6.38;;;2.40;;
49217;SDS011;35045;51.194;7.268;2023-04-24T14:40:37;6.70;;;2.30;;
49217;SDS011;35045;51.194;7.268;2023-04-24T14:43:06;7.20;;;2.17;;
49217;SDS011;35045;51.194;7.268;2023-04-24T14:45:33;8.50;;;2.45;;
49217;SDS011;35045;51.194;7.268;2023-04-24T14:47:59;7.43;;;2.00;;
49217;SDS011;35045;51.194;7.268;2023-04-24T14:50:25;7.75;;;2.20;;